sensor_id;sensor_type;location;lat;lon;timestamp;temperature;humidity
29775;DHT22;16676;51.202;6.774;2024-01-16T00:00:09;17.60;67.50
29775;DHT22;16676;51.202;6.774;2024-01-16T00:04:13;17.60;67.40
29775;DHT22;16676;51.202;6.774;2024-01-16T00:08:14;17.50;67.40
29775;DHT22;16676;51.202;6.774;2024-01-16T00:12:16;17.50;67.40
29775;DHT22;16676;51.202;6.774;2024-01-16T00:16:18;17.50;67.40
29775;DHT22;16676;51.202;6.774;2024-01-16T00:20:21;17.40;67.90
29775;DHT22;16676;51.202;6.774;2024-01-16T00:24:24;17.20;68.70
29775;DHT22;16676;51.202;6.774;2024-01-16T00:28:25;17.20;68.80
29775;DHT22;16676;51.202;6.774;2024-01-16T00:32:27;17.20;69.00
29775;DHT22;16676;51.202;6.774;2024-01-16T00:36:30;17.20;69.10
29775;DHT22;16676;51.202;6.774;2024-01-16T00:40:32;17.20;69.10
29775;DHT22;16676;51.202;6.774;2024-01-16T00:44:34;17.20;69.00
29775;DHT22;16676;51.202;6.774;2024-01-16T00:48:36;17.20;68.90
29775;DHT22;16676;51.202;6.774;2024-01-16T00:52:39;17.20;68.80
29775;DHT22;16676;51.202;6.774;2024-01-16T00:56:42;17.20;68.70
29775;DHT22;16676;51.202;6.774;2024-01-16T01:00:43;17.10;68.90
29775;DHT22;16676;51.202;6.774;2024-01-16T01:04:45;17.10;68.90
29775;DHT22;16676;51.202;6.774;2024-01-16T01:08:49;17.10;68.90
29775;DHT22;16676;51.202;6.774;2024-01-16T01:12:51;17.00;69.10
29775;DHT22;16676;51.202;6.774;2024-01-16T01:16:54;17.00;69.20
29775;DHT22;16676;51.202;6.774;2024-01-16T01:20:55;17.00;69.10
29775;DHT22;16676;51.202;6.774;2024-01-16T01:24:59;17.10;68.90
29775;DHT22;16676;51.202;6.774;2024-01-16T01:29:00;17.10;68.60
29775;DHT22;16676;51.202;6.774;2024-01-16T01:33:03;17.10;68.70
29775;DHT22;16676;51.202;6.774;2024-01-16T01:37:05;17.10;68.70
29775;DHT22;16676;51.202;6.774;2024-01-16T01:41:08;17.00;68.70
29775;DHT22;16676;51.202;6.774;2024-01-16T01:45:12;17.00;68.60
29775;DHT22;16676;51.202;6.774;2024-01-16T01:49:14;17.00;68.70
29775;DHT22;16676;51.202;6.774;2024-01-16T01:53:17;16.90;68.80
29775;DHT22;16676;51.202;6.774;2024-01-16T01:57:20;17.00;68.70
29775;DHT22;16676;51.202;6.774;2024-01-16T02:01:24;16.90;68.70
29775;DHT22;16676;51.202;6.774;2024-01-16T02:05:27;17.00;68.80
29775;DHT22;16676;51.202;6.774;2024-01-16T02:09:31;16.90;68.60
29775;DHT22;16676;51.202;6.774;2024-01-16T02:13:34;17.00;68.80
29775;DHT22;16676;51.202;6.774;2024-01-16T02:17:36;16.90;68.70
29775;DHT22;16676;51.202;6.774;2024-01-16T02:21:39;16.90;68.90
29775;DHT22;16676;51.202;6.774;2024-01-16T02:25:44;16.90;68.90
29775;DHT22;16676;51.202;6.774;2024-01-16T02:29:46;16.90;69.00
29775;DHT22;16676;51.202;6.774;2024-01-16T02:33:48;16.80;69.10
29775;DHT22;16676;51.202;6.774;2024-01-16T02:37:50;16.80;69.20
29775;DHT22;16676;51.202;6.774;2024-01-16T02:41:53;16.80;69.00
29775;DHT22;16676;51.202;6.774;2024-01-16T02:45:55;16.80;69.20
29775;DHT22;16676;51.202;6.774;2024-01-16T02:49:59;16.80;69.10
29775;DHT22;16676;51.202;6.774;2024-01-16T02:54:01;16.70;69.30
29775;DHT22;16676;51.202;6.774;2024-01-16T02:58:04;16.70;69.40
29775;DHT22;16676;51.202;6.774;2024-01-16T03:02:06;16.70;69.40
29775;DHT22;16676;51.202;6.774;2024-01-16T03:06:09;16.70;69.30
29775;DHT22;16676;51.202;6.774;2024-01-16T03:10:11;16.70;69.30
29775;DHT22;16676;51.202;6.774;2024-01-16T03:14:14;16.70;69.20
29775;DHT22;16676;51.202;6.774;2024-01-16T03:18:16;16.70;69.00
29775;DHT22;16676;51.202;6.774;2024-01-16T03:22:18;16.70;69.00
29775;DHT22;16676;51.202;6.774;2024-01-16T03:26:20;16.70;69.10
29775;DHT22;16676;51.202;6.774;2024-01-16T03:30:24;16.60;69.00
29775;DHT22;16676;51.202;6.774;2024-01-16T03:34:26;16.70;69.00
29775;DHT22;16676;51.202;6.774;2024-01-16T03:38:27;16.70;68.80
29775;DHT22;16676;51.202;6.774;2024-01-16T03:42:29;16.70;68.80
29775;DHT22;16676;51.202;6.774;2024-01-16T03:46:32;16.60;68.80
29775;DHT22;16676;51.202;6.774;2024-01-16T03:50:36;16.60;68.80
29775;DHT22;16676;51.202;6.774;2024-01-16T03:54:37;16.70;68.80
29775;DHT22;16676;51.202;6.774;2024-01-16T03:58:40;16.60;68.80
29775;DHT22;16676;51.202;6.774;2024-01-16T04:02:43;16.60;68.90
29775;DHT22;16676;51.202;6.774;2024-01-16T04:06:46;16.50;69.00
29775;DHT22;16676;51.202;6.774;2024-01-16T04:10:48;16.60;68.90
29775;DHT22;16676;51.202;6.774;2024-01-16T04:14:49;16.60;68.80
29775;DHT22;16676;51.202;6.774;2024-01-16T04:18:53;16.60;68.70
29775;DHT22;16676;51.202;6.774;2024-01-16T04:22:55;16.60;68.90
29775;DHT22;16676;51.202;6.774;2024-01-16T04:26:58;16.60;68.80
29775;DHT22;16676;51.202;6.774;2024-01-16T04:31:00;16.60;68.90
29775;DHT22;16676;51.202;6.774;2024-01-16T04:35:04;16.60;69.00
29775;DHT22;16676;51.202;6.774;2024-01-16T04:39:06;16.60;69.30
29775;DHT22;16676;51.202;6.774;2024-01-16T04:43:09;16.60;69.60
29775;DHT22;16676;51.202;6.774;2024-01-16T04:47:11;16.70;70.60
29775;DHT22;16676;51.202;6.774;2024-01-16T04:51:14;16.90;71.00
29775;DHT22;16676;51.202;6.774;2024-01-16T04:55:16;17.10;70.80
29775;DHT22;16676;51.202;6.774;2024-01-16T04:59:18;17.20;70.20
29775;DHT22;16676;51.202;6.774;2024-01-16T05:03:20;17.30;69.60
29775;DHT22;16676;51.202;6.774;2024-01-16T05:07:24;17.40;69.00
29775;DHT22;16676;51.202;6.774;2024-01-16T05:11:26;17.50;68.70
29775;DHT22;16676;51.202;6.774;2024-01-16T05:15:28;17.50;68.40
29775;DHT22;16676;51.202;6.774;2024-01-16T05:19:30;17.60;68.80
29775;DHT22;16676;51.202;6.774;2024-01-16T05:23:33;17.60;67.60
29775;DHT22;16676;51.202;6.774;2024-01-16T05:27:35;17.60;67.40
29775;DHT22;16676;51.202;6.774;2024-01-16T05:31:40;17.70;67.30
29775;DHT22;16676;51.202;6.774;2024-01-16T05:35:42;17.70;67.20
29775;DHT22;16676;51.202;6.774;2024-01-16T05:39:45;17.70;67.00
29775;DHT22;16676;51.202;6.774;2024-01-16T05:43:47;17.70;67.60
29775;DHT22;16676;51.202;6.774;2024-01-16T05:47:49;17.80;67.60
29775;DHT22;16676;51.202;6.774;2024-01-16T05:51:51;17.80;67.30
29775;DHT22;16676;51.202;6.774;2024-01-16T05:55:54;17.80;67.10
29775;DHT22;16676;51.202;6.774;2024-01-16T05:59:56;17.80;66.90
29775;DHT22;16676;51.202;6.774;2024-01-16T06:03:58;17.80;66.60
29775;DHT22;16676;51.202;6.774;2024-01-16T06:08:00;17.80;66.40
29775;DHT22;16676;51.202;6.774;2024-01-16T06:12:05;17.80;66.30
29775;DHT22;16676;51.202;6.774;2024-01-16T06:16:07;17.80;66.50
29775;DHT22;16676;51.202;6.774;2024-01-16T06:20:10;17.80;66.40
29775;DHT22;16676;51.202;6.774;2024-01-16T06:24:12;17.80;66.50
29775;DHT22;16676;51.202;6.774;2024-01-16T06:28:15;17.80;66.60
29775;DHT22;16676;51.202;6.774;2024-01-16T06:32:17;17.80;66.40
29775;DHT22;16676;51.202;6.774;2024-01-16T06:36:19;17.80;65.90
29775;DHT22;16676;51.202;6.774;2024-01-16T06:40:21;17.80;66.10
29775;DHT22;16676;51.202;6.774;2024-01-16T06:44:24;17.80;65.90
29775;DHT22;16676;51.202;6.774;2024-01-16T06:48:26;17.80;66.00
29775;DHT22;16676;51.202;6.774;2024-01-16T06:52:28;17.70;65.90
29775;DHT22;16676;51.202;6.774;2024-01-16T06:56:31;17.70;65.80
29775;DHT22;16676;51.202;6.774;2024-01-16T07:00:34;17.70;65.70
29775;DHT22;16676;51.202;6.774;2024-01-16T07:04:36;17.70;65.50
29775;DHT22;16676;51.202;6.774;2024-01-16T07:08:38;17.70;65.80
29775;DHT22;16676;51.202;6.774;2024-01-16T07:12:40;17.70;65.70
29775;DHT22;16676;51.202;6.774;2024-01-16T07:16:43;17.70;65.40
29775;DHT22;16676;51.202;6.774;2024-01-16T07:20:45;17.70;65.40
29775;DHT22;16676;51.202;6.774;2024-01-16T07:24:47;17.70;65.60
29775;DHT22;16676;51.202;6.774;2024-01-16T07:28:49;17.70;66.00
29775;DHT22;16676;51.202;6.774;2024-01-16T07:32:52;17.60;65.60
29775;DHT22;16676;51.202;6.774;2024-01-16T07:36:54;17.60;63.90
29775;DHT22;16676;51.202;6.774;2024-01-16T07:40:56;17.30;62.60
29775;DHT22;16676;51.202;6.774;2024-01-16T07:44:58;17.30;62.00
29775;DHT22;16676;51.202;6.774;2024-01-16T07:49:01;17.50;62.30
29775;DHT22;16676;51.202;6.774;2024-01-16T07:53:03;18.00;61.80
29775;DHT22;16676;51.202;6.774;2024-01-16T07:57:05;18.50;61.40
29775;DHT22;16676;51.202;6.774;2024-01-16T08:01:07;18.90;60.90
29775;DHT22;16676;51.202;6.774;2024-01-16T08:05:10;19.20;60.10
29775;DHT22;16676;51.202;6.774;2024-01-16T08:09:12;19.50;60.00
29775;DHT22;16676;51.202;6.774;2024-01-16T08:13:14;19.70;59.50
29775;DHT22;16676;51.202;6.774;2024-01-16T08:17:16;19.90;59.20
29775;DHT22;16676;51.202;6.774;2024-01-16T08:21:20;20.10;59.10
29775;DHT22;16676;51.202;6.774;2024-01-16T08:25:22;20.30;59.20
29775;DHT22;16676;51.202;6.774;2024-01-16T08:29:24;20.40;59.10
29775;DHT22;16676;51.202;6.774;2024-01-16T08:33:26;20.60;59.10
29775;DHT22;16676;51.202;6.774;2024-01-16T08:37:29;20.70;58.90
29775;DHT22;16676;51.202;6.774;2024-01-16T08:41:31;20.70;58.80
29775;DHT22;16676;51.202;6.774;2024-01-16T08:45:32;20.70;58.80
29775;DHT22;16676;51.202;6.774;2024-01-16T08:49:35;20.80;58.90
29775;DHT22;16676;51.202;6.774;2024-01-16T08:53:40;20.80;59.00
29775;DHT22;16676;51.202;6.774;2024-01-16T08:57:42;20.80;58.90
29775;DHT22;16676;51.202;6.774;2024-01-16T09:01:44;20.80;59.00
29775;DHT22;16676;51.202;6.774;2024-01-16T09:05:46;20.90;59.20
29775;DHT22;16676;51.202;6.774;2024-01-16T09:09:49;20.80;59.40
29775;DHT22;16676;51.202;6.774;2024-01-16T09:13:52;20.80;59.40
29775;DHT22;16676;51.202;6.774;2024-01-16T09:17:53;20.70;59.40
29775;DHT22;16676;51.202;6.774;2024-01-16T09:21:55;20.70;59.50
29775;DHT22;16676;51.202;6.774;2024-01-16T09:25:59;20.60;59.70
29775;DHT22;16676;51.202;6.774;2024-01-16T09:30:00;20.70;59.60
29775;DHT22;16676;51.202;6.774;2024-01-16T09:34:02;20.60;59.60
29775;DHT22;16676;51.202;6.774;2024-01-16T09:38:04;20.60;59.70
29775;DHT22;16676;51.202;6.774;2024-01-16T09:42:07;20.60;59.70
29775;DHT22;16676;51.202;6.774;2024-01-16T09:46:11;20.50;60.00
29775;DHT22;16676;51.202;6.774;2024-01-16T09:50:14;20.50;59.90
29775;DHT22;16676;51.202;6.774;2024-01-16T09:54:17;20.50;59.90
29775;DHT22;16676;51.202;6.774;2024-01-16T09:58:21;20.40;60.10
29775;DHT22;16676;51.202;6.774;2024-01-16T10:02:23;20.40;60.20
29775;DHT22;16676;51.202;6.774;2024-01-16T10:06:27;20.30;60.30
29775;DHT22;16676;51.202;6.774;2024-01-16T10:10:29;20.30;60.60
29775;DHT22;16676;51.202;6.774;2024-01-16T10:14:33;20.30;60.70
29775;DHT22;16676;51.202;6.774;2024-01-16T10:18:35;20.20;60.90
29775;DHT22;16676;51.202;6.774;2024-01-16T10:22:38;20.20;61.20
29775;DHT22;16676;51.202;6.774;2024-01-16T10:26:40;20.10;61.20
29775;DHT22;16676;51.202;6.774;2024-01-16T10:30:44;20.00;61.60
29775;DHT22;16676;51.202;6.774;2024-01-16T10:34:45;20.00;61.80
29775;DHT22;16676;51.202;6.774;2024-01-16T10:38:47;19.90;62.20
29775;DHT22;16676;51.202;6.774;2024-01-16T10:42:58;19.80;62.60
29775;DHT22;16676;51.202;6.774;2024-01-16T10:47:11;19.70;63.10
29775;DHT22;16676;51.202;6.774;2024-01-16T10:51:14;19.60;63.60
29775;DHT22;16676;51.202;6.774;2024-01-16T10:55:20;19.60;63.90
29775;DHT22;16676;51.202;6.774;2024-01-16T10:59:25;19.50;64.20
29775;DHT22;16676;51.202;6.774;2024-01-16T11:03:34;19.50;64.30
29775;DHT22;16676;51.202;6.774;2024-01-16T11:07:37;19.50;64.70
29775;DHT22;16676;51.202;6.774;2024-01-16T11:11:40;19.40;64.70
29775;DHT22;16676;51.202;6.774;2024-01-16T11:15:43;19.30;65.00
29775;DHT22;16676;51.202;6.774;2024-01-16T11:19:46;19.40;65.20
29775;DHT22;16676;51.202;6.774;2024-01-16T11:23:49;19.40;65.50
29775;DHT22;16676;51.202;6.774;2024-01-16T11:27:51;19.40;65.70
29775;DHT22;16676;51.202;6.774;2024-01-16T11:31:54;19.50;65.60
29775;DHT22;16676;51.202;6.774;2024-01-16T11:35:57;19.60;65.30
29775;DHT22;16676;51.202;6.774;2024-01-16T11:40:22;19.70;65.30
29775;DHT22;16676;51.202;6.774;2024-01-16T11:44:45;19.70;65.20
29775;DHT22;16676;51.202;6.774;2024-01-16T11:49:01;19.70;65.30
29775;DHT22;16676;51.202;6.774;2024-01-16T11:53:05;19.70;65.30
29775;DHT22;16676;51.202;6.774;2024-01-16T11:57:28;19.80;65.30
29775;DHT22;16676;51.202;6.774;2024-01-16T12:01:35;19.80;65.30
29775;DHT22;16676;51.202;6.774;2024-01-16T12:05:37;19.80;66.00
29775;DHT22;16676;51.202;6.774;2024-01-16T12:09:40;19.90;65.20
29775;DHT22;16676;51.202;6.774;2024-01-16T12:13:42;20.00;65.30
29775;DHT22;16676;51.202;6.774;2024-01-16T12:17:55;20.00;65.40
29775;DHT22;16676;51.202;6.774;2024-01-16T12:21:57;20.00;65.50
29775;DHT22;16676;51.202;6.774;2024-01-16T12:26:00;20.00;65.60
29775;DHT22;16676;51.202;6.774;2024-01-16T12:30:08;20.10;65.60
29775;DHT22;16676;51.202;6.774;2024-01-16T12:34:35;20.10;66.40
29775;DHT22;16676;51.202;6.774;2024-01-16T12:38:37;20.10;65.60
29775;DHT22;16676;51.202;6.774;2024-01-16T12:42:41;20.10;65.50
29775;DHT22;16676;51.202;6.774;2024-01-16T12:46:43;20.20;65.40
29775;DHT22;16676;51.202;6.774;2024-01-16T12:50:46;20.10;54.50
29775;DHT22;16676;51.202;6.774;2024-01-16T12:54:48;19.80;51.90
29775;DHT22;16676;51.202;6.774;2024-01-16T12:58:52;19.50;49.10
29775;DHT22;16676;51.202;6.774;2024-01-16T13:02:54;19.20;48.30
29775;DHT22;16676;51.202;6.774;2024-01-16T13:07:01;19.10;48.20
29775;DHT22;16676;51.202;6.774;2024-01-16T13:11:05;19.00;47.30
29775;DHT22;16676;51.202;6.774;2024-01-16T13:15:09;18.90;46.20
29775;DHT22;16676;51.202;6.774;2024-01-16T13:19:11;18.60;44.20
29775;DHT22;16676;51.202;6.774;2024-01-16T13:23:13;18.50;44.40
29775;DHT22;16676;51.202;6.774;2024-01-16T13:27:15;18.40;48.80
29775;DHT22;16676;51.202;6.774;2024-01-16T13:31:19;18.30;52.80
29775;DHT22;16676;51.202;6.774;2024-01-16T13:35:21;18.50;48.90
29775;DHT22;16676;51.202;6.774;2024-01-16T13:39:23;18.70;49.30
29775;DHT22;16676;51.202;6.774;2024-01-16T13:43:25;18.80;49.90
29775;DHT22;16676;51.202;6.774;2024-01-16T13:47:29;19.00;50.50
29775;DHT22;16676;51.202;6.774;2024-01-16T13:51:31;19.10;51.10
29775;DHT22;16676;51.202;6.774;2024-01-16T13:55:33;19.10;51.50
29775;DHT22;16676;51.202;6.774;2024-01-16T13:59:35;19.20;52.10
29775;DHT22;16676;51.202;6.774;2024-01-16T14:03:38;19.20;52.40
29775;DHT22;16676;51.202;6.774;2024-01-16T14:07:41;19.30;52.70
29775;DHT22;16676;51.202;6.774;2024-01-16T14:11:43;19.30;53.00
29775;DHT22;16676;51.202;6.774;2024-01-16T14:15:44;19.30;53.30
29775;DHT22;16676;51.202;6.774;2024-01-16T14:19:48;19.30;53.50
29775;DHT22;16676;51.202;6.774;2024-01-16T14:23:50;19.20;53.90
29775;DHT22;16676;51.202;6.774;2024-01-16T14:27:57;19.20;54.20
29775;DHT22;16676;51.202;6.774;2024-01-16T14:31:59;19.30;54.40
29775;DHT22;16676;51.202;6.774;2024-01-16T14:36:03;19.30;54.60
29775;DHT22;16676;51.202;6.774;2024-01-16T14:40:06;19.50;55.10
29775;DHT22;16676;51.202;6.774;2024-01-16T14:44:13;19.90;54.60
29775;DHT22;16676;51.202;6.774;2024-01-16T14:48:15;20.40;54.30
29775;DHT22;16676;51.202;6.774;2024-01-16T14:52:18;20.70;53.50
29775;DHT22;16676;51.202;6.774;2024-01-16T14:56:21;20.90;53.50
29775;DHT22;16676;51.202;6.774;2024-01-16T15:00:23;21.00;53.40
29775;DHT22;16676;51.202;6.774;2024-01-16T15:04:27;21.10;53.30
29775;DHT22;16676;51.202;6.774;2024-01-16T15:08:30;21.20;53.10
29775;DHT22;16676;51.202;6.774;2024-01-16T15:12:33;21.30;53.60
29775;DHT22;16676;51.202;6.774;2024-01-16T15:16:35;21.20;53.50
29775;DHT22;16676;51.202;6.774;2024-01-16T15:20:37;21.20;53.60
29775;DHT22;16676;51.202;6.774;2024-01-16T15:24:40;21.20;54.00
29775;DHT22;16676;51.202;6.774;2024-01-16T15:28:42;21.20;53.90
29775;DHT22;16676;51.202;6.774;2024-01-16T15:32:44;21.20;53.90
29775;DHT22;16676;51.202;6.774;2024-01-16T15:36:46;21.20;53.90
29775;DHT22;16676;51.202;6.774;2024-01-16T15:40:49;21.20;54.30
29775;DHT22;16676;51.202;6.774;2024-01-16T15:44:51;21.20;54.20
29775;DHT22;16676;51.202;6.774;2024-01-16T15:48:54;21.10;54.50
29775;DHT22;16676;51.202;6.774;2024-01-16T15:52:56;21.10;54.50
29775;DHT22;16676;51.202;6.774;2024-01-16T15:57:00;21.10;54.60
29775;DHT22;16676;51.202;6.774;2024-01-16T16:01:02;21.00;54.70
29775;DHT22;16676;51.202;6.774;2024-01-16T16:05:04;21.00;55.40
29775;DHT22;16676;51.202;6.774;2024-01-16T16:09:07;21.00;55.00
29775;DHT22;16676;51.202;6.774;2024-01-16T16:13:10;20.90;55.00
29775;DHT22;16676;51.202;6.774;2024-01-16T16:17:12;20.90;55.40
29775;DHT22;16676;51.202;6.774;2024-01-16T16:21:14;20.80;55.40
29775;DHT22;16676;51.202;6.774;2024-01-16T16:25:16;20.70;55.70
29775;DHT22;16676;51.202;6.774;2024-01-16T16:29:19;20.70;55.80
29775;DHT22;16676;51.202;6.774;2024-01-16T16:33:21;20.70;55.80
29775;DHT22;16676;51.202;6.774;2024-01-16T16:37:24;20.60;56.00
29775;DHT22;16676;51.202;6.774;2024-01-16T16:41:26;20.60;56.10
29775;DHT22;16676;51.202;6.774;2024-01-16T16:45:30;20.50;56.10
29775;DHT22;16676;51.202;6.774;2024-01-16T16:49:32;20.40;56.50
29775;DHT22;16676;51.202;6.774;2024-01-16T16:53:34;20.40;56.80
29775;DHT22;16676;51.202;6.774;2024-01-16T16:57:36;20.40;57.30
29775;DHT22;16676;51.202;6.774;2024-01-16T17:01:40;20.40;57.80
29775;DHT22;16676;51.202;6.774;2024-01-16T17:05:42;20.40;58.40
29775;DHT22;16676;51.202;6.774;2024-01-16T17:09:44;20.50;59.00
29775;DHT22;16676;51.202;6.774;2024-01-16T17:13:46;20.50;61.20
29775;DHT22;16676;51.202;6.774;2024-01-16T17:17:50;20.50;63.40
29775;DHT22;16676;51.202;6.774;2024-01-16T17:21:52;20.50;65.20
29775;DHT22;16676;51.202;6.774;2024-01-16T17:25:54;20.60;67.30
29775;DHT22;16676;51.202;6.774;2024-01-16T17:29:55;20.60;68.80
29775;DHT22;16676;51.202;6.774;2024-01-16T17:33:59;20.60;69.10
29775;DHT22;16676;51.202;6.774;2024-01-16T17:38:01;20.50;68.90
29775;DHT22;16676;51.202;6.774;2024-01-16T17:42:03;20.60;69.40
29775;DHT22;16676;51.202;6.774;2024-01-16T17:46:06;20.60;71.40
29775;DHT22;16676;51.202;6.774;2024-01-16T17:50:09;20.60;72.90
29775;DHT22;16676;51.202;6.774;2024-01-16T17:54:12;20.60;74.20
29775;DHT22;16676;51.202;6.774;2024-01-16T17:58:15;20.50;76.20
29775;DHT22;16676;51.202;6.774;2024-01-16T18:02:22;20.30;79.00
29775;DHT22;16676;51.202;6.774;2024-01-16T18:06:25;20.20;82.50
29775;DHT22;16676;51.202;6.774;2024-01-16T18:10:27;20.20;79.40
29775;DHT22;16676;51.202;6.774;2024-01-16T18:14:30;20.30;76.20
29775;DHT22;16676;51.202;6.774;2024-01-16T18:18:32;20.30;73.40
29775;DHT22;16676;51.202;6.774;2024-01-16T18:22:36;20.40;71.50
29775;DHT22;16676;51.202;6.774;2024-01-16T18:26:37;20.40;69.60
29775;DHT22;16676;51.202;6.774;2024-01-16T18:30:40;20.30;69.00
29775;DHT22;16676;51.202;6.774;2024-01-16T18:34:42;20.20;68.90
29775;DHT22;16676;51.202;6.774;2024-01-16T18:38:46;18.50;44.30
29775;DHT22;16676;51.202;6.774;2024-01-16T18:42:47;16.40;40.70
29775;DHT22;16676;51.202;6.774;2024-01-16T18:46:49;15.40;45.60
29775;DHT22;16676;51.202;6.774;2024-01-16T18:50:51;16.20;51.90
29775;DHT22;16676;51.202;6.774;2024-01-16T18:54:56;17.00;53.20
29775;DHT22;16676;51.202;6.774;2024-01-16T18:58:58;17.60;53.50
29775;DHT22;16676;51.202;6.774;2024-01-16T19:03:00;18.00;52.90
29775;DHT22;16676;51.202;6.774;2024-01-16T19:07:02;18.40;53.50
29775;DHT22;16676;51.202;6.774;2024-01-16T19:11:14;18.60;53.70
29775;DHT22;16676;51.202;6.774;2024-01-16T19:15:17;18.80;53.90
29775;DHT22;16676;51.202;6.774;2024-01-16T19:19:20;19.00;54.20
29775;DHT22;16676;51.202;6.774;2024-01-16T19:23:26;19.20;54.40
29775;DHT22;16676;51.202;6.774;2024-01-16T19:27:29;19.30;53.70
29775;DHT22;16676;51.202;6.774;2024-01-16T19:31:32;19.40;54.20
29775;DHT22;16676;51.202;6.774;2024-01-16T19:35:36;19.50;54.40
29775;DHT22;16676;51.202;6.774;2024-01-16T19:39:37;19.60;54.40
29775;DHT22;16676;51.202;6.774;2024-01-16T19:43:44;19.70;54.60
29775;DHT22;16676;51.202;6.774;2024-01-16T19:47:47;19.70;54.70
29775;DHT22;16676;51.202;6.774;2024-01-16T19:51:49;19.70;54.90
29775;DHT22;16676;51.202;6.774;2024-01-16T19:55:51;19.80;55.10
29775;DHT22;16676;51.202;6.774;2024-01-16T19:59:57;19.80;55.50
29775;DHT22;16676;51.202;6.774;2024-01-16T20:03:59;19.80;55.50
29775;DHT22;16676;51.202;6.774;2024-01-16T20:08:01;19.90;55.50
29775;DHT22;16676;51.202;6.774;2024-01-16T20:12:04;20.00;55.70
29775;DHT22;16676;51.202;6.774;2024-01-16T20:16:08;20.10;55.90
29775;DHT22;16676;51.202;6.774;2024-01-16T20:20:12;20.20;56.00
29775;DHT22;16676;51.202;6.774;2024-01-16T20:24:14;20.30;56.00
29775;DHT22;16676;51.202;6.774;2024-01-16T20:28:16;20.40;56.10
29775;DHT22;16676;51.202;6.774;2024-01-16T20:32:20;20.50;56.30
29775;DHT22;16676;51.202;6.774;2024-01-16T20:36:22;20.50;56.10
29775;DHT22;16676;51.202;6.774;2024-01-16T20:40:24;20.60;56.00
29775;DHT22;16676;51.202;6.774;2024-01-16T20:44:26;20.70;56.00
29775;DHT22;16676;51.202;6.774;2024-01-16T20:48:34;20.70;55.70
29775;DHT22;16676;51.202;6.774;2024-01-16T20:52:36;20.70;55.80
29775;DHT22;16676;51.202;6.774;2024-01-16T20:56:38;20.80;56.00
29775;DHT22;16676;51.202;6.774;2024-01-16T21:00:41;20.80;56.10
29775;DHT22;16676;51.202;6.774;2024-01-16T21:04:47;20.80;56.50
29775;DHT22;16676;51.202;6.774;2024-01-16T21:08:49;20.80;56.60
29775;DHT22;16676;51.202;6.774;2024-01-16T21:12:51;20.80;57.00
29775;DHT22;16676;51.202;6.774;2024-01-16T21:16:53;20.70;56.90
29775;DHT22;16676;51.202;6.774;2024-01-16T21:20:56;20.70;56.90
29775;DHT22;16676;51.202;6.774;2024-01-16T21:24:58;20.70;57.30
29775;DHT22;16676;51.202;6.774;2024-01-16T21:29:00;20.70;56.90
29775;DHT22;16676;51.202;6.774;2024-01-16T21:33:02;20.60;57.40
29775;DHT22;16676;51.202;6.774;2024-01-16T21:37:05;20.60;57.40
29775;DHT22;16676;51.202;6.774;2024-01-16T21:41:08;20.50;57.40
29775;DHT22;16676;51.202;6.774;2024-01-16T21:45:10;20.50;57.40
29775;DHT22;16676;51.202;6.774;2024-01-16T21:49:12;20.40;57.50
29775;DHT22;16676;51.202;6.774;2024-01-16T21:53:17;20.40;57.60
29775;DHT22;16676;51.202;6.774;2024-01-16T21:57:19;20.30;57.50
29775;DHT22;16676;51.202;6.774;2024-01-16T22:01:21;20.30;57.50
29775;DHT22;16676;51.202;6.774;2024-01-16T22:05:24;20.20;57.60
29775;DHT22;16676;51.202;6.774;2024-01-16T22:09:27;20.20;57.50
29775;DHT22;16676;51.202;6.774;2024-01-16T22:13:30;20.10;57.60
29775;DHT22;16676;51.202;6.774;2024-01-16T22:17:33;20.10;57.70
29775;DHT22;16676;51.202;6.774;2024-01-16T22:21:35;20.10;57.70
29775;DHT22;16676;51.202;6.774;2024-01-16T22:25:38;20.00;57.80
29775;DHT22;16676;51.202;6.774;2024-01-16T22:29:41;19.90;57.70
29775;DHT22;16676;51.202;6.774;2024-01-16T22:33:44;19.90;57.80
29775;DHT22;16676;51.202;6.774;2024-01-16T22:37:46;19.80;57.80
29775;DHT22;16676;51.202;6.774;2024-01-16T22:41:50;19.80;58.00
29775;DHT22;16676;51.202;6.774;2024-01-16T22:45:52;19.80;57.90
29775;DHT22;16676;51.202;6.774;2024-01-16T22:49:54;19.70;58.00
29775;DHT22;16676;51.202;6.774;2024-01-16T22:53:56;19.60;58.20
29775;DHT22;16676;51.202;6.774;2024-01-16T22:58:00;19.60;58.20
29775;DHT22;16676;51.202;6.774;2024-01-16T23:02:03;19.50;58.10
29775;DHT22;16676;51.202;6.774;2024-01-16T23:06:06;19.50;58.10
29775;DHT22;16676;51.202;6.774;2024-01-16T23:10:08;19.50;58.00
29775;DHT22;16676;51.202;6.774;2024-01-16T23:14:11;19.40;58.20
29775;DHT22;16676;51.202;6.774;2024-01-16T23:18:13;19.40;57.90
29775;DHT22;16676;51.202;6.774;2024-01-16T23:22:15;19.40;57.90
29775;DHT22;16676;51.202;6.774;2024-01-16T23:26:17;19.30;58.10
29775;DHT22;16676;51.202;6.774;2024-01-16T23:30:21;19.20;58.10
29775;DHT22;16676;51.202;6.774;2024-01-16T23:34:22;19.20;57.90
29775;DHT22;16676;51.202;6.774;2024-01-16T23:38:24;19.10;58.40
29775;DHT22;16676;51.202;6.774;2024-01-16T23:42:28;19.10;58.10
29775;DHT22;16676;51.202;6.774;2024-01-16T23:46:33;19.10;58.00
29775;DHT22;16676;51.202;6.774;2024-01-16T23:50:37;19.00;58.30
29775;DHT22;16676;51.202;6.774;2024-01-16T23:54:40;19.00;58.50
29775;DHT22;16676;51.202;6.774;2024-01-16T23:58:41;18.90;58.60
